sim
Sign-in with your pilot id or email,
or register
Callsign
Passwort

Schedule Details

Flight Number: OEO8544
Departure: Cologne Bonn Airport (EDDK) at 14:10
Arrival: Bremen Airport (EDDW) at 15:20

Weather Information
Getting current METAR information for EDDK 101920Z 34005KT 9999 FEW035 15/10 Q1018 NOSIG
Getting current METAR information for EDDW 101920Z 29008KT 9999 FEW030 14/10 Q1016 NOSIG

Schedule Frequency

Route Map